createdAt,value
2022-11-27T00:01:31.358Z,8.63
2022-11-27T00:03:59.013Z,8.66
2022-11-27T00:06:27.951Z,8.89
2022-11-27T00:08:59.919Z,8.74
2022-11-27T00:11:29.268Z,8.92
2022-11-27T00:13:56.799Z,8.34
2022-11-27T00:16:24.885Z,8.42
2022-11-27T00:18:52.942Z,8.58
2022-11-27T00:21:24.041Z,8.99
2022-11-27T00:23:55.401Z,8.60
2022-11-27T00:26:23.176Z,8.79
2022-11-27T00:28:51.064Z,8.67
2022-11-27T00:31:28.571Z,8.91
2022-11-27T00:33:59.153Z,9.00
2022-11-27T00:36:31.596Z,8.58
2022-11-27T00:38:59.209Z,8.69
2022-11-27T00:41:29.023Z,8.67
2022-11-27T00:43:56.882Z,8.76
2022-11-27T00:46:29.078Z,8.85
2022-11-27T00:48:58.255Z,8.99
2022-11-27T00:51:26.464Z,8.82
2022-11-27T00:53:53.897Z,8.73
2022-11-27T00:56:24.274Z,8.45
2022-11-27T00:58:52.129Z,8.58
2022-11-27T01:01:25.054Z,8.65
2022-11-27T01:03:52.734Z,8.38
2022-11-27T01:06:20.646Z,8.31
2022-11-27T01:08:48.184Z,8.33
2022-11-27T01:11:21.203Z,8.34
2022-11-27T01:13:48.996Z,8.23
2022-11-27T01:16:20.231Z,8.31
2022-11-27T01:18:49.246Z,8.54
2022-11-27T01:21:20.717Z,8.41
2022-11-27T01:23:49.554Z,8.31
2022-11-27T01:26:18.071Z,8.45
2022-11-27T01:28:45.762Z,8.42
2022-11-27T01:31:18.827Z,8.31
2022-11-27T01:33:46.946Z,7.91
2022-11-27T01:36:15.637Z,7.47
2022-11-27T01:38:43.164Z,8.17
2022-11-27T01:41:39.892Z,7.90
2022-11-27T01:44:25.350Z,7.67
2022-11-27T01:46:55.766Z,7.99
2022-11-27T01:49:42.769Z,8.44
2022-11-27T01:52:16.896Z,7.58
2022-11-27T01:54:54.936Z,7.55
2022-11-27T01:57:30.363Z,7.94
2022-11-27T01:59:59.329Z,8.13
2022-11-27T02:02:27.424Z,8.10
2022-11-27T02:04:58.754Z,7.85
2022-11-27T02:07:26.197Z,8.07
2022-11-27T02:09:53.656Z,8.12
2022-11-27T02:12:27.284Z,7.72
2022-11-27T02:15:01.576Z,7.94
2022-11-27T02:17:47.663Z,7.53
2022-11-27T02:20:33.206Z,8.04
2022-11-27T02:23:22.077Z,8.11
2022-11-27T02:26:17.922Z,8.29
2022-11-27T02:29:12.914Z,8.39
2022-11-27T02:31:44.684Z,8.26
2022-11-27T02:34:35.784Z,8.09
2022-11-27T02:37:18.309Z,8.05
2022-11-27T02:40:18.106Z,7.96
2022-11-27T02:43:24.420Z,8.15
2022-11-27T02:45:52.425Z,8.22
2022-11-27T02:48:24.224Z,7.79
2022-11-27T02:50:52.658Z,7.81
2022-11-27T02:53:37.931Z,7.75
2022-11-27T02:56:08.709Z,7.73
2022-11-27T02:58:36.503Z,7.77
2022-11-27T03:01:05.939Z,8.17
2022-11-27T03:03:36.763Z,7.78
2022-11-27T03:06:09.696Z,7.80
2022-11-27T03:08:38.866Z,7.51
2022-11-27T03:11:09.941Z,7.59
2022-11-27T03:13:48.907Z,7.59
2022-11-27T03:16:25.264Z,7.79
2022-11-27T03:18:59.370Z,7.85
2022-11-27T03:21:34.950Z,7.86
2022-11-27T03:24:02.722Z,7.58
2022-11-27T03:26:30.768Z,7.66
2022-11-27T03:28:59.966Z,7.81
2022-11-27T03:31:28.738Z,7.74
2022-11-27T03:33:56.753Z,7.64
2022-11-27T03:36:24.094Z,7.50
2022-11-27T03:38:54.156Z,7.36
2022-11-27T03:41:55.219Z,7.49
2022-11-27T03:44:35.803Z,7.78
2022-11-27T03:47:06.331Z,7.67
2022-11-27T03:49:43.001Z,7.44
2022-11-27T03:52:25.008Z,7.70
2022-11-27T03:55:01.521Z,7.29
2022-11-27T03:57:34.140Z,7.25
2022-11-27T04:00:04.867Z,7.50
2022-11-27T04:03:00.911Z,7.29
2022-11-27T04:05:28.511Z,7.31
2022-11-27T04:07:56.812Z,7.32
2022-11-27T04:10:24.210Z,7.29
2022-11-27T04:12:51.819Z,7.39
2022-11-27T04:15:19.144Z,7.45
2022-11-27T04:17:46.473Z,7.31
2022-11-27T04:20:14.628Z,7.13
2022-11-27T04:22:43.153Z,7.36
2022-11-27T04:25:10.537Z,7.14
2022-11-27T04:27:38.307Z,7.16
2022-11-27T04:30:06.157Z,7.36
2022-11-27T04:32:33.552Z,7.18
2022-11-27T04:35:01.334Z,7.17
2022-11-27T04:37:28.766Z,6.02
2022-11-27T04:39:56.080Z,6.91
2022-11-27T04:42:23.693Z,7.04
2022-11-27T04:44:52.552Z,7.02
2022-11-27T04:47:19.978Z,6.77
2022-11-27T04:49:47.560Z,6.43
2022-11-27T04:52:16.941Z,6.48
2022-11-27T04:54:44.304Z,5.83
2022-11-27T04:57:11.998Z,5.89
2022-11-27T04:59:39.413Z,6.05
2022-11-27T05:02:06.783Z,5.94
2022-11-27T05:04:34.460Z,5.57
2022-11-27T05:07:01.810Z,5.65
2022-11-27T05:09:29.183Z,6.42
2022-11-27T05:11:56.802Z,6.18
2022-11-27T05:14:29.181Z,5.55
2022-11-27T05:16:58.719Z,5.99
2022-11-27T05:19:28.699Z,6.37
2022-11-27T05:21:56.441Z,5.61
2022-11-27T05:24:26.347Z,5.45
2022-11-27T05:26:54.529Z,5.37
2022-11-27T05:29:23.341Z,5.63
2022-11-27T05:31:50.972Z,5.92
2022-11-27T05:34:18.727Z,5.55
2022-11-27T05:36:46.536Z,5.69
2022-11-27T05:39:14.615Z,5.23
2022-11-27T05:41:43.186Z,5.74
2022-11-27T05:44:14.667Z,6.01
2022-11-27T05:46:45.217Z,5.46
2022-11-27T05:49:14.136Z,6.87
2022-11-27T05:51:44.182Z,7.13
2022-11-27T05:54:13.834Z,7.31
2022-11-27T05:56:41.147Z,7.40
2022-11-27T05:59:10.211Z,7.03
2022-11-27T06:01:37.621Z,7.06
2022-11-27T06:04:05.441Z,7.34
2022-11-27T06:06:32.779Z,7.52
2022-11-27T06:09:00.582Z,7.21
2022-11-27T06:11:28.165Z,7.10
2022-11-27T06:13:55.508Z,7.02
2022-11-27T06:16:24.071Z,7.55
2022-11-27T06:18:53.178Z,7.66
2022-11-27T06:21:21.750Z,7.54
2022-11-27T06:23:49.228Z,7.17
2022-11-27T06:26:19.375Z,7.15
2022-11-27T06:28:47.593Z,6.85
2022-11-27T06:31:18.497Z,6.46
2022-11-27T06:33:47.317Z,5.96
2022-11-27T06:36:15.166Z,5.48
2022-11-27T06:38:42.962Z,5.85
2022-11-27T06:41:13.705Z,6.06
2022-11-27T06:43:41.175Z,6.46
2022-11-27T06:46:12.040Z,6.88
2022-11-27T06:48:39.681Z,7.43
2022-11-27T06:51:07.785Z,7.41
2022-11-27T06:53:36.902Z,7.52
2022-11-27T06:56:06.021Z,7.98
2022-11-27T06:58:33.380Z,7.62
2022-11-27T07:01:02.314Z,6.99
2022-11-27T07:03:30.236Z,6.58
2022-11-27T07:06:03.238Z,6.81
2022-11-27T07:08:31.222Z,6.57
2022-11-27T07:11:03.118Z,7.25
2022-11-27T07:13:31.381Z,7.23
2022-11-27T07:16:06.927Z,7.37
2022-11-27T07:18:45.692Z,7.66
2022-11-27T07:21:13.574Z,7.38
2022-11-27T07:23:41.182Z,7.54
2022-11-27T07:26:11.011Z,7.67
2022-11-27T07:28:38.618Z,7.76
2022-11-27T07:31:06.645Z,6.98
2022-11-27T07:33:34.044Z,6.91
2022-11-27T07:36:05.134Z,7.00
2022-11-27T07:38:33.029Z,6.97
2022-11-27T07:41:01.621Z,7.25
2022-11-27T07:43:29.548Z,7.12
2022-11-27T07:45:57.213Z,7.92
2022-11-27T07:48:25.031Z,8.47
2022-11-27T07:50:52.369Z,8.66
2022-11-27T07:53:20.075Z,8.72
2022-11-27T07:55:47.529Z,8.52
2022-11-27T07:58:14.875Z,8.18
2022-11-27T08:00:42.715Z,8.19
2022-11-27T08:03:10.607Z,8.26
2022-11-27T08:05:38.151Z,8.60
2022-11-27T08:08:05.611Z,8.44
2022-11-27T08:10:37.219Z,7.22
2022-11-27T08:13:05.535Z,7.23
2022-11-27T08:15:33.358Z,7.84
2022-11-27T08:18:00.909Z,7.49
2022-11-27T08:20:28.478Z,8.55
2022-11-27T08:23:02.328Z,8.63
2022-11-27T08:25:30.795Z,8.39
2022-11-27T08:27:58.397Z,8.44
2022-11-27T08:30:25.858Z,8.71
2022-11-27T08:32:53.270Z,8.84
2022-11-27T08:35:22.543Z,8.94
2022-11-27T08:37:49.996Z,8.87
2022-11-27T08:40:17.295Z,8.21
2022-11-27T08:42:44.876Z,8.24
2022-11-27T08:45:12.247Z,8.10
2022-11-27T08:47:39.589Z,8.06
2022-11-27T08:50:07.913Z,8.20
2022-11-27T08:52:35.242Z,8.37
2022-11-27T08:55:02.646Z,8.58
2022-11-27T08:57:30.247Z,8.68
2022-11-27T08:59:57.561Z,8.88
2022-11-27T09:02:24.884Z,8.96
2022-11-27T09:04:53.455Z,8.84
2022-11-27T09:07:20.981Z,8.54
2022-11-27T09:09:48.680Z,8.44
2022-11-27T09:12:16.317Z,9.02
2022-11-27T09:14:43.778Z,9.16
2022-11-27T09:17:11.188Z,8.86
2022-11-27T09:19:38.766Z,8.98
2022-11-27T09:22:06.099Z,9.09
2022-11-27T09:24:33.455Z,9.27
2022-11-27T09:27:01.043Z,8.78
2022-11-27T09:29:28.396Z,8.62
2022-11-27T09:31:55.768Z,8.74
2022-11-27T09:34:23.370Z,8.89
2022-11-27T09:36:50.732Z,9.22
2022-11-27T09:39:19.607Z,9.00
2022-11-27T09:41:53.591Z,8.66
2022-11-27T09:44:40.693Z,9.15
2022-11-27T09:47:27.168Z,9.75
2022-11-27T09:50:37.199Z,10.02
2022-11-27T09:53:17.836Z,9.43
2022-11-27T09:55:48.736Z,9.65
2022-11-27T09:58:19.180Z,9.92
2022-11-27T10:00:47.624Z,9.88
2022-11-27T10:03:18.840Z,10.13
2022-11-27T10:13:59.564Z,7.57
2022-11-27T10:16:44.757Z,8.00
2022-11-27T10:19:33.783Z,8.39
2022-11-27T10:22:19.683Z,8.84
2022-11-27T10:25:18.102Z,8.94
2022-11-27T10:27:58.471Z,8.55
2022-11-27T10:30:27.200Z,8.95
2022-11-27T10:32:56.565Z,9.34
2022-11-27T10:35:29.692Z,8.84
2022-11-27T10:38:08.520Z,8.91
2022-11-27T10:40:42.992Z,7.82
2022-11-27T10:43:14.907Z,8.33
2022-11-27T10:46:05.120Z,9.19
2022-11-27T10:48:33.306Z,9.03
2022-11-27T10:51:00.856Z,7.75
2022-11-27T10:53:34.159Z,8.56
2022-11-27T10:56:10.468Z,9.33
2022-11-27T10:58:56.252Z,9.02
2022-11-27T11:01:25.673Z,8.70
2022-11-27T11:04:31.387Z,9.47
2022-11-27T11:06:55.104Z,9.36
2022-11-27T11:09:32.845Z,9.36
2022-11-27T11:12:18.481Z,9.39
2022-11-27T11:14:54.685Z,9.33
2022-11-27T11:17:26.295Z,9.42
2022-11-27T11:19:53.689Z,9.21
2022-11-27T11:22:21.328Z,9.24
2022-11-27T11:24:52.885Z,9.54
2022-11-27T11:27:23.531Z,9.58
2022-11-27T11:29:53.470Z,10.02
2022-11-27T11:32:20.698Z,9.67
2022-11-27T11:35:00.822Z,9.92
2022-11-27T11:37:34.074Z,9.79
2022-11-27T11:40:01.288Z,9.79
2022-11-27T11:42:31.832Z,9.70
2022-11-27T11:45:11.210Z,9.56
2022-11-27T11:47:47.003Z,9.78
2022-11-27T11:50:28.441Z,9.96
2022-11-27T11:53:02.795Z,9.53
2022-11-27T11:55:42.593Z,9.39
2022-11-27T11:58:37.688Z,9.14
2022-11-27T12:01:33.331Z,8.90
2022-11-27T12:04:40.665Z,9.45
2022-11-27T12:07:25.134Z,9.71
2022-11-27T12:09:58.471Z,9.35
2022-11-27T12:12:47.385Z,9.21
2022-11-27T12:15:28.526Z,9.40
2022-11-27T12:18:03.240Z,9.24
2022-11-27T12:20:46.476Z,9.40
2022-11-27T12:23:28.912Z,9.47
2022-11-27T12:26:17.970Z,9.61
2022-11-27T12:29:02.364Z,9.60
2022-11-27T12:31:52.390Z,9.08
2022-11-27T12:34:28.721Z,9.07
2022-11-27T12:37:09.881Z,8.93
2022-11-27T12:39:54.849Z,9.29
2022-11-27T12:42:47.063Z,9.31
2022-11-27T12:45:20.287Z,9.17
2022-11-27T12:48:01.456Z,9.14
2022-11-27T12:51:06.766Z,9.16
2022-11-27T12:53:48.505Z,9.51
2022-11-27T12:56:22.404Z,9.48
2022-11-27T12:59:08.750Z,9.28
2022-11-27T13:02:27.650Z,9.58
2022-11-27T13:05:02.682Z,9.52
2022-11-27T13:07:44.739Z,9.67
2022-11-27T13:10:13.984Z,9.57
2022-11-27T13:13:02.498Z,9.68
2022-11-27T13:15:38.901Z,9.78
2022-11-27T13:18:25.581Z,9.73
2022-11-27T13:20:53.788Z,9.96
2022-11-27T13:23:21.344Z,10.04
2022-11-27T13:25:55.056Z,9.98
2022-11-27T13:28:41.241Z,9.70
2022-11-27T13:31:09.771Z,9.75
2022-11-27T13:33:42.904Z,9.75
2022-11-27T13:36:23.087Z,9.83
2022-11-27T13:38:58.643Z,10.16
2022-11-27T13:41:33.556Z,9.80
2022-11-27T13:44:01.803Z,9.58
2022-11-27T13:46:30.936Z,9.81
2022-11-27T13:49:02.319Z,10.10
2022-11-27T13:51:32.484Z,10.09
2022-11-27T13:54:13.041Z,9.93
2022-11-27T13:56:41.133Z,10.30
2022-11-27T13:59:20.613Z,10.12
2022-11-27T14:01:59.383Z,9.86
2022-11-27T14:04:28.450Z,9.90
2022-11-27T14:07:00.481Z,9.75
2022-11-27T14:09:41.532Z,9.93
2022-11-27T14:12:27.185Z,10.16
2022-11-27T14:15:18.363Z,9.94
2022-11-27T14:17:47.984Z,9.84
2022-11-27T14:20:18.747Z,9.72
2022-11-27T17:43:44.047Z,6.27
2022-11-27T17:46:17.796Z,6.27
2022-11-27T17:48:45.830Z,6.56
2022-11-27T17:51:14.181Z,7.02
2022-11-27T17:53:43.161Z,7.43
2022-11-27T17:56:14.170Z,7.67
2022-11-27T17:58:42.966Z,7.83
2022-11-27T18:01:17.047Z,7.91
2022-11-27T18:03:46.837Z,8.20
2022-11-27T18:06:16.621Z,8.08
2022-11-27T18:08:45.449Z,8.39
2022-11-27T18:11:20.523Z,8.42
2022-11-27T18:13:49.596Z,8.61
2022-11-27T18:16:29.155Z,8.69
2022-11-27T18:18:58.590Z,8.38
2022-11-27T18:21:28.944Z,8.40
2022-11-27T18:29:36.901Z,8.78
2022-11-27T18:32:05.625Z,8.59
2022-11-27T18:34:33.595Z,9.03
2022-11-27T18:37:01.624Z,8.91
2022-11-27T18:39:30.247Z,8.75
2022-11-27T18:41:58.872Z,8.89
2022-11-27T18:44:27.032Z,9.01
2022-11-27T18:46:57.603Z,8.89
2022-11-27T18:49:26.521Z,8.60
2022-11-27T18:51:54.793Z,8.80
2022-11-27T18:54:23.008Z,8.68
2022-11-27T18:56:50.899Z,8.98
2022-11-27T18:59:19.206Z,9.14
2022-11-27T19:01:47.518Z,8.95
2022-11-27T19:04:16.380Z,8.78
2022-11-27T19:06:45.153Z,9.00
2022-11-27T19:09:14.838Z,9.01
2022-11-27T19:11:45.031Z,8.85
2022-11-27T19:14:13.496Z,8.83
2022-11-27T19:16:46.750Z,8.88
2022-11-27T19:19:53.864Z,8.95
2022-11-27T19:22:10.565Z,9.17
2022-11-27T19:24:42.804Z,9.04
2022-11-27T19:27:10.617Z,9.05
2022-11-27T19:29:39.588Z,8.73
2022-11-27T19:32:08.475Z,8.90
2022-11-27T19:34:36.773Z,8.88
2022-11-27T19:37:05.069Z,8.88
2022-11-27T19:39:32.703Z,8.96
2022-11-27T19:42:01.093Z,8.91
2022-11-27T19:44:29.738Z,9.13
2022-11-27T19:46:58.976Z,9.08
2022-11-27T19:49:27.299Z,9.15
2022-11-27T19:51:55.752Z,9.05
2022-11-27T19:54:24.462Z,8.90
2022-11-27T19:56:53.432Z,8.85
2022-11-27T19:59:25.792Z,8.71
2022-11-27T20:01:54.419Z,8.68
2022-11-27T20:04:28.147Z,8.59
2022-11-27T20:06:58.084Z,8.71
2022-11-27T20:09:25.928Z,8.46
2022-11-27T20:11:55.667Z,8.48
2022-11-27T20:14:23.758Z,8.49
2022-11-27T20:16:52.260Z,8.48
2022-11-27T20:19:20.330Z,8.86
2022-11-27T20:21:49.372Z,8.28
2022-11-27T20:24:19.213Z,8.53
2022-11-27T20:26:48.014Z,8.36
2022-11-27T20:29:16.353Z,8.31
2022-11-27T20:31:45.187Z,8.59
2022-11-27T20:34:20.644Z,8.36
2022-11-27T20:36:50.644Z,8.40
2022-11-27T20:39:21.610Z,8.39
2022-11-27T20:41:52.017Z,8.42
2022-11-27T20:44:22.644Z,8.32
2022-11-27T20:46:51.059Z,8.45
2022-11-27T20:49:18.992Z,8.57
2022-11-27T20:51:50.842Z,8.25
2022-11-27T20:54:24.005Z,8.16
2022-11-27T20:56:52.082Z,8.25
2022-11-27T20:59:20.161Z,8.50
2022-11-27T21:01:48.479Z,8.42
2022-11-27T21:04:26.662Z,8.67
2022-11-27T21:06:55.043Z,8.51
2022-11-27T21:09:22.549Z,8.54
2022-11-27T21:11:50.419Z,8.62
2022-11-27T21:14:20.629Z,8.67
2022-11-27T21:16:50.750Z,8.66
2022-11-27T21:19:21.566Z,8.51
2022-11-27T21:21:51.118Z,8.52
2022-11-27T21:24:19.955Z,8.46
2022-11-27T21:26:48.075Z,8.81
2022-11-27T21:29:16.447Z,8.61
2022-11-27T21:31:47.176Z,8.64
2022-11-27T21:34:15.880Z,8.53
2022-11-27T21:36:45.403Z,8.40
2022-11-27T21:39:20.093Z,8.66
2022-11-27T21:41:50.476Z,8.75
2022-11-27T21:44:18.910Z,8.60
2022-11-27T21:46:46.955Z,8.62
2022-11-27T21:49:15.546Z,8.62
2022-11-27T21:51:43.039Z,8.48
2022-11-27T21:54:12.951Z,8.31
2022-11-27T21:56:40.916Z,8.30
2022-11-27T21:59:10.925Z,8.43
2022-11-27T22:01:38.414Z,8.28
2022-11-27T22:04:06.331Z,8.40
2022-11-27T22:06:38.666Z,8.50
2022-11-27T22:09:11.882Z,8.62
2022-11-27T22:11:42.511Z,8.49
2022-11-27T22:14:10.142Z,8.40
2022-11-27T22:16:44.908Z,8.78
2022-11-27T22:19:14.676Z,8.46
2022-11-27T22:21:42.758Z,8.57
2022-11-27T22:24:16.521Z,8.43
2022-11-27T22:26:47.367Z,8.38
2022-11-27T22:29:17.122Z,8.46
2022-11-27T22:31:44.516Z,8.51
2022-11-27T22:34:12.300Z,8.38
2022-11-27T22:36:40.158Z,8.39
2022-11-27T22:39:09.079Z,8.35
2022-11-27T22:41:38.140Z,8.44
2022-11-27T22:44:14.400Z,8.37
2022-11-27T22:46:42.651Z,8.34
2022-11-27T22:49:15.398Z,7.89
2022-11-27T22:51:43.851Z,8.35
2022-11-27T22:54:14.945Z,8.75
2022-11-27T22:56:46.410Z,8.66
2022-11-27T23:02:02.664Z,8.31
2022-11-27T23:04:30.234Z,8.13
2022-11-27T23:06:58.157Z,8.25
2022-11-27T23:09:26.319Z,8.43
2022-11-27T23:11:53.876Z,8.39
2022-11-27T23:14:21.235Z,8.41
2022-11-27T23:16:49.391Z,8.32
2022-11-27T23:19:16.793Z,8.24
2022-11-27T23:21:44.132Z,7.93
2022-11-27T23:24:15.250Z,8.12
2022-11-27T23:26:43.752Z,7.73
2022-11-27T23:29:11.327Z,7.91
2022-11-27T23:31:40.158Z,8.10
2022-11-27T23:34:10.699Z,8.09
2022-11-27T23:36:38.621Z,7.90
2022-11-27T23:39:07.693Z,8.17
2022-11-27T23:41:35.027Z,8.15
2022-11-27T23:44:02.347Z,8.10
2022-11-27T23:46:30.515Z,8.33
2022-11-27T23:48:59.656Z,8.51
2022-11-27T23:51:30.301Z,8.43
2022-11-27T23:53:58.182Z,8.55
2022-11-27T23:56:27.994Z,8.41
2022-11-27T23:58:55.800Z,8.44
